Time;durP1;ratioP1;P1;durP2;ratioP2;P2;SDS_P1;SDS_P2;PMS_P1;PMS_P2;Temp;Humidity;BMP_temperature;BMP_pressure;BME280_temperature;BME280_humidity;BME280_pressure;Samples;Min_cycle;Max_cycle;Signal;HPM_P1;HPM_P2
2020/12/07 02:33:34;;;;;;;24.80;23.70;;;3.50;99.90;;;;;;5778458;23;20495;-81
2020/12/07 02:36:00;;;;;;;25.83;24.57;;;3.50;99.90;;;;;;4980033;28;20460;-81
2020/12/07 02:38:26;;;;;;;28.10;26.67;;;3.50;99.90;;;;;;4969828;28;20574;-79
2020/12/07 02:40:52;;;;;;;24.70;23.50;;;3.50;99.90;;;;;;4960465;28;20459;-74
2020/12/07 02:43:19;;;;;;;26.83;25.40;;;3.50;99.90;;;;;;4951814;28;20797;-76
2020/12/07 02:45:45;;;;;;;26.27;25.00;;;3.50;99.90;;;;;;4951963;28;20460;-75
2020/12/07 02:48:11;;;;;;;24.73;23.53;;;3.50;99.90;;;;;;4952003;28;20506;-75
2020/12/07 02:50:38;;;;;;;26.80;25.23;;;3.60;99.90;;;;;;4951768;28;20459;-74
2020/12/07 02:53:04;;;;;;;24.87;23.53;;;3.60;99.90;;;;;;4951701;28;20860;-76
2020/12/07 02:55:30;;;;;;;26.20;25.00;;;3.60;99.90;;;;;;4951851;28;20460;-75
2020/12/07 02:57:56;;;;;;;26.83;25.53;;;3.60;99.90;;;;;;4952132;28;20440;-75
2020/12/07 03:00:23;;;;;;;25.70;24.40;;;3.60;99.90;;;;;;4956002;28;20453;-77
2020/12/07 03:02:49;;;;;;;25.10;23.90;;;3.60;99.90;;;;;;4959894;28;20453;-76
2020/12/07 03:05:15;;;;;;;25.57;24.27;;;3.60;99.90;;;;;;4953117;28;20452;-75
2020/12/07 03:07:42;;;;;;;24.17;23.07;;;3.60;99.90;;;;;;4952147;28;20843;-74
2020/12/07 03:10:08;;;;;;;23.73;22.63;;;3.60;99.90;;;;;;4951781;28;20500;-75
2020/12/07 03:12:34;;;;;;;23.30;22.20;;;3.60;99.90;;;;;;4951574;28;20459;-75
2020/12/07 03:15:01;;;;;;;24.50;23.40;;;3.50;99.90;;;;;;4951660;28;20457;-74
2020/12/07 03:17:27;;;;;;;24.77;23.50;;;3.60;99.90;;;;;;4952001;28;20465;-75
2020/12/07 03:19:53;;;;;;;24.77;23.37;;;3.50;99.90;;;;;;4951528;28;20443;-74
2020/12/07 03:22:19;;;;;;;24.37;23.17;;;3.50;99.90;;;;;;4951660;28;20447;-73
2020/12/07 03:24:46;;;;;;;24.20;23.10;;;3.50;99.90;;;;;;4951426;28;20453;-73
2020/12/07 03:27:12;;;;;;;23.80;22.60;;;3.60;99.90;;;;;;4951606;28;20496;-73
2020/12/07 03:29:39;;;;;;;23.43;22.40;;;3.60;99.90;;;;;;4951539;28;20935;-73
2020/12/07 03:32:05;;;;;;;23.03;22.03;;;3.60;99.90;;;;;;4951451;28;20797;-73
2020/12/07 03:34:31;;;;;;;23.70;22.60;;;3.50;99.90;;;;;;4951295;28;20472;-73
2020/12/07 03:36:57;;;;;;;23.70;22.70;;;3.60;99.90;;;;;;4951721;28;20456;-73
2020/12/07 03:39:23;;;;;;;23.20;22.20;;;3.60;99.90;;;;;;4951307;28;20452;-73
2020/12/07 03:41:50;;;;;;;22.87;21.87;;;3.70;99.90;;;;;;4951671;28;20861;-72
2020/12/07 03:44:16;;;;;;;22.60;21.70;;;3.60;99.90;;;;;;4951645;28;20664;-73
2020/12/07 03:46:43;;;;;;;22.27;21.37;;;3.60;99.90;;;;;;4954878;28;20453;-73
2020/12/07 03:49:09;;;;;;;20.80;19.80;;;3.50;99.90;;;;;;4954652;28;20491;-73
2020/12/07 03:51:35;;;;;;;23.33;22.20;;;3.60;99.90;;;;;;4954964;28;20827;-73
2020/12/07 03:54:01;;;;;;;23.80;22.70;;;3.60;99.90;;;;;;4954800;28;20452;-73
2020/12/07 03:56:27;;;;;;;23.10;22.10;;;3.60;99.90;;;;;;4954952;28;20449;-73
2020/12/07 03:58:54;;;;;;;23.53;22.53;;;3.60;99.90;;;;;;4954921;28;20451;-75
2020/12/07 04:01:20;;;;;;;24.30;23.10;;;3.60;99.90;;;;;;4954651;28;20448;-75
2020/12/07 04:03:51;;;;;;;23.63;22.53;;;3.60;99.90;;;;;;4954504;28;20449;-74
2020/12/07 04:06:22;;;;;;;25.73;24.50;;;3.60;99.90;;;;;;4954728;28;20560;-74
2020/12/07 04:08:48;;;;;;;24.33;23.10;;;3.70;99.90;;;;;;4954461;28;20742;-74
2020/12/07 04:11:14;;;;;;;25.00;23.80;;;3.60;99.90;;;;;;4954558;28;20860;-75
2020/12/07 04:13:40;;;;;;;23.30;22.30;;;3.60;99.90;;;;;;4954569;28;20440;-74
2020/12/07 04:16:07;;;;;;;24.70;23.57;;;3.70;99.90;;;;;;4954548;28;20970;-75
2020/12/07 04:18:33;;;;;;;24.03;22.93;;;3.60;99.90;;;;;;4954342;28;20448;-75
2020/12/07 04:21:00;;;;;;;23.80;22.80;;;3.60;99.90;;;;;;4954125;28;20459;-75
2020/12/07 04:23:27;;;;;;;25.00;23.80;;;3.60;99.90;;;;;;4954824;28;20441;-76
2020/12/07 04:25:53;;;;;;;25.43;24.33;;;3.60;99.90;;;;;;4954333;28;20484;-76
2020/12/07 04:28:19;;;;;;;25.57;24.40;;;3.60;99.90;;;;;;4954072;28;20507;-76
2020/12/07 04:30:45;;;;;;;25.30;24.20;;;3.60;99.90;;;;;;4954341;28;20467;-76
2020/12/07 04:33:12;;;;;;;25.40;24.00;;;3.70;99.90;;;;;;4954424;28;20464;-76
2020/12/07 04:35:38;;;;;;;24.63;23.53;;;3.70;99.90;;;;;;4953984;28;20468;-76
2020/12/07 04:38:05;;;;;;;24.10;23.10;;;3.70;99.90;;;;;;4954023;28;20962;-76
2020/12/07 04:40:31;;;;;;;23.53;22.53;;;3.70;99.90;;;;;;4954172;28;20441;-76
2020/12/07 04:42:57;;;;;;;25.37;24.20;;;3.70;99.90;;;;;;4954215;28;20453;-76
2020/12/07 04:45:24;;;;;;;25.27;24.17;;;3.80;99.90;;;;;;4953867;28;20457;-77
2020/12/07 04:47:51;;;;;;;25.40;24.30;;;3.80;99.90;;;;;;4953802;28;20631;-78
2020/12/07 04:50:21;;;;;;;24.67;23.57;;;3.80;99.90;;;;;;4954189;28;20810;-77
2020/12/07 04:52:49;;;;;;;24.57;23.33;;;3.80;99.90;;;;;;4954074;28;20535;-77
2020/12/07 04:55:16;;;;;;;25.17;23.87;;;3.80;99.90;;;;;;4953663;28;20479;-78
2020/12/07 04:57:43;;;;;;;25.13;24.03;;;3.90;99.90;;;;;;4953943;28;20452;-77
2020/12/07 05:00:09;;;;;;;26.10;24.80;;;3.90;99.90;;;;;;4954073;28;20816;-77
2020/12/07 05:02:36;;;;;;;24.03;22.80;;;3.90;99.90;;;;;;4953678;28;20449;-78
2020/12/07 05:05:03;;;;;;;24.07;23.07;;;3.90;99.90;;;;;;4953755;28;20473;-78
2020/12/07 05:07:32;;;;;;;24.60;23.40;;;4.00;99.90;;;;;;4953857;28;20813;-78
2020/12/07 05:09:58;;;;;;;24.07;23.03;;;4.00;99.90;;;;;;4953658;28;20456;-77
2020/12/07 05:12:34;;;;;;;24.70;23.57;;;4.10;99.90;;;;;;4953568;28;20572;-78
2020/12/07 05:15:00;;;;;;;26.47;25.17;;;4.10;99.90;;;;;;4953449;28;20448;-78
2020/12/07 05:17:26;;;;;;;25.17;24.07;;;4.00;99.90;;;;;;4953448;28;20445;-77
2020/12/07 05:19:52;;;;;;;24.30;23.20;;;4.00;99.90;;;;;;4953308;28;20453;-78
2020/12/07 05:22:18;;;;;;;24.93;23.73;;;4.10;99.90;;;;;;4953291;28;20453;-79
2020/12/07 05:24:49;;;;;;;23.93;22.83;;;4.00;99.90;;;;;;4953127;28;20445;-79
2020/12/07 05:27:17;;;;;;;26.20;24.90;;;4.00;99.90;;;;;;4953627;28;20815;-79
2020/12/07 05:29:56;;;;;;;23.67;22.57;;;4.10;99.90;;;;;;4953089;28;20916;-82
2020/12/07 05:32:23;;;;;;;24.07;22.90;;;4.10;99.90;;;;;;4953273;28;20479;-82
2020/12/07 05:34:49;;;;;;;23.90;22.80;;;4.10;99.90;;;;;;4953266;28;20477;-82
2020/12/07 05:37:17;;;;;;;23.80;22.70;;;4.00;99.90;;;;;;4953387;28;20444;-78
2020/12/07 05:39:43;;;;;;;22.90;21.83;;;4.10;99.90;;;;;;4953394;28;20818;-79
2020/12/07 05:42:12;;;;;;;24.37;23.07;;;4.10;99.90;;;;;;4953114;28;20449;-77
2020/12/07 05:44:41;;;;;;;25.37;24.07;;;4.30;99.90;;;;;;4952954;28;20441;-73
2020/12/07 05:47:08;;;;;;;24.33;23.23;;;4.30;99.90;;;;;;4953024;28;20448;-78
2020/12/07 05:49:35;;;;;;;24.10;23.00;;;4.30;99.90;;;;;;4953080;28;20499;-78
2020/12/07 05:52:04;;;;;;;24.23;23.03;;;4.20;99.90;;;;;;4958795;28;20456;-78
2020/12/07 05:54:32;;;;;;;26.60;24.77;;;4.20;99.90;;;;;;4959456;28;20444;-78
2020/12/07 05:57:08;;;;;;;25.73;24.33;;;4.20;99.90;;;;;;4952875;28;20934;-77
2020/12/07 05:59:40;;;;;;;24.23;23.13;;;4.20;99.90;;;;;;4952617;28;20503;-78
2020/12/07 06:02:09;;;;;;;24.43;23.23;;;4.20;99.90;;;;;;4952823;28;20433;-83
2020/12/07 06:04:36;;;;;;;25.63;24.30;;;4.20;99.90;;;;;;4952923;28;20472;-83
2020/12/07 06:07:04;;;;;;;24.97;23.67;;;4.20;99.90;;;;;;4952787;28;20449;-83
2020/12/07 06:09:32;;;;;;;25.37;24.13;;;4.30;99.90;;;;;;4952132;28;20488;-79
2020/12/07 06:12:04;;;;;;;25.43;24.13;;;4.30;99.90;;;;;;4952659;28;20449;-79
2020/12/07 06:14:31;;;;;;;26.00;24.40;;;4.20;99.90;;;;;;4952751;28;20447;-83
2020/12/07 06:16:59;;;;;;;25.87;24.63;;;4.20;99.90;;;;;;4953153;28;20452;-80
2020/12/07 06:19:25;;;;;;;25.90;24.60;;;4.10;99.90;;;;;;4957349;28;20444;-80
2020/12/07 06:21:53;;;;;;;24.50;23.20;;;4.10;99.90;;;;;;4957699;28;20457;-81
2020/12/07 06:24:20;;;;;;;25.50;24.13;;;4.10;99.90;;;;;;4960531;28;20443;-81
2020/12/07 06:27:00;;;;;;;26.93;25.70;;;4.20;99.90;;;;;;4961825;28;20454;-81
2020/12/07 06:29:26;;;;;;;25.57;24.27;;;4.20;99.90;;;;;;4962088;28;20511;-81
2020/12/07 06:31:53;;;;;;;24.20;23.00;;;4.20;99.90;;;;;;4958877;28;20452;-81
2020/12/07 06:34:20;;;;;;;24.43;23.07;;;4.20;99.90;;;;;;4960606;28;20472;-79
2020/12/07 06:36:49;;;;;;;25.80;24.50;;;4.10;99.90;;;;;;4960021;28;20443;-83
2020/12/07 06:39:15;;;;;;;25.00;23.70;;;4.10;99.90;;;;;;4961315;28;20475;-85
2020/12/07 06:41:43;;;;;;;26.90;25.50;;;4.10;99.90;;;;;;4961727;28;20448;-84
2020/12/07 06:44:12;;;;;;;25.07;23.67;;;4.10;99.90;;;;;;4960087;28;20950;-84
2020/12/07 06:46:59;;;;;;;26.20;24.53;;;4.10;99.90;;;;;;4959176;28;20444;-86
2020/12/07 06:49:36;;;;;;;24.77;23.53;;;4.10;99.90;;;;;;4961065;28;20993;-88
2020/12/07 06:52:10;;;;;;;25.20;23.50;;;4.10;99.90;;;;;;4961050;28;20535;-87
2020/12/07 06:57:24;;;;;;;26.97;25.57;;;4.10;99.90;;;;;;4960081;28;20428;-85
2020/12/07 06:59:59;;;;;;;25.33;23.70;;;4.10;99.90;;;;;;4971544;28;20457;-86
2020/12/07 07:02:25;;;;;;;25.30;23.50;;;4.10;99.90;;;;;;4973199;28;20443;-86
2020/12/07 07:04:53;;;;;;;25.40;23.97;;;4.00;99.90;;;;;;4973404;28;20463;-84
2020/12/07 07:07:20;;;;;;;25.30;23.90;;;4.00;99.90;;;;;;4964937;28;20720;-85
2020/12/07 07:09:47;;;;;;;25.47;23.90;;;4.10;99.90;;;;;;4955001;28;20503;-82
2020/12/07 07:12:15;;;;;;;23.37;21.77;;;4.10;99.90;;;;;;4952634;28;20523;-80
2020/12/07 07:14:42;;;;;;;25.03;23.17;;;4.20;99.90;;;;;;4952419;28;20449;-82
2020/12/07 07:17:09;;;;;;;26.47;23.97;;;4.20;99.90;;;;;;4952148;28;20456;-84
2020/12/07 07:19:35;;;;;;;23.83;22.20;;;4.20;99.90;;;;;;4953459;28;20437;-82
2020/12/07 07:22:02;;;;;;;23.17;21.03;;;4.20;99.90;;;;;;4955771;28;20814;-82
2020/12/07 07:24:32;;;;;;;21.47;19.87;;;4.20;99.90;;;;;;4957305;28;20904;-84
2020/12/07 07:27:08;;;;;;;21.67;20.23;;;4.30;99.90;;;;;;4956009;28;20463;-83
2020/12/07 07:29:33;;;;;;;21.87;20.13;;;4.30;99.90;;;;;;4955444;28;21277;-84
2020/12/07 07:31:59;;;;;;;19.67;18.27;;;4.40;99.90;;;;;;4955592;28;20576;-83
2020/12/07 07:34:26;;;;;;;20.27;18.83;;;4.40;99.90;;;;;;4956026;28;20240;-82
2020/12/07 07:36:52;;;;;;;18.67;17.57;;;4.30;99.90;;;;;;4955534;28;20456;-83
2020/12/07 07:39:20;;;;;;;22.10;18.00;;;4.20;99.90;;;;;;4955429;28;20483;-83
2020/12/07 07:41:47;;;;;;;17.73;16.10;;;4.20;99.90;;;;;;4955660;28;20463;-83
2020/12/07 07:44:15;;;;;;;18.27;15.20;;;4.20;99.90;;;;;;4955659;28;20448;-83
2020/12/07 07:46:44;;;;;;;21.77;15.97;;;4.20;99.90;;;;;;4955549;28;20467;-83
2020/12/07 07:49:21;;;;;;;18.73;16.83;;;4.30;99.90;;;;;;4955784;28;20473;-82
2020/12/07 07:57:35;;;;;;;19.13;17.23;;;4.80;99.90;;;;;;4955403;29;20514;-82
2020/12/07 07:58:34;;;;;;;16.47;15.33;;;5.20;99.90;;;;;;4955394;28;20443;-82
2020/12/07 08:01:47;;;;;;;15.17;14.07;;;5.60;99.90;;;;;;4955246;28;20978;-85
2020/12/07 08:15:23;;;;;;;15.20;14.20;;;6.00;99.90;;;;;;4954950;28;20441;-75
2020/12/07 08:17:50;;;;;;;14.97;13.63;;;6.00;99.90;;;;;;4954780;28;20860;-75
2020/12/07 08:20:17;;;;;;;14.20;13.40;;;6.30;99.90;;;;;;4954792;28;20452;-90
2020/12/07 08:22:55;;;;;;;13.10;12.40;;;6.60;99.90;;;;;;4956451;28;20980;-83
2020/12/07 08:25:22;;;;;;;12.27;11.57;;;6.80;99.90;;;;;;4955743;28;20473;-91
2020/12/07 08:27:49;;;;;;;13.13;12.43;;;6.90;99.90;;;;;;4956052;28;20463;-86
2020/12/07 08:30:15;;;;;;;14.60;13.80;;;6.90;99.90;;;;;;4954547;28;20523;-83
2020/12/07 08:32:41;;;;;;;13.67;12.80;;;7.10;99.90;;;;;;4955136;28;20476;-88
2020/12/07 08:35:12;;;;;;;12.90;12.20;;;7.20;99.90;;;;;;4954426;28;20477;-80
2020/12/07 08:37:41;;;;;;;14.50;13.60;;;7.40;99.90;;;;;;4954462;28;20957;-83
2020/12/07 08:40:08;;;;;;;13.93;13.03;;;7.50;99.90;;;;;;4954900;28;20445;-82
2020/12/07 08:42:34;;;;;;;13.63;12.80;;;7.80;99.90;;;;;;4954661;28;20440;-84
2020/12/07 08:45:01;;;;;;;13.20;12.40;;;7.80;99.90;;;;;;4960324;28;20452;-83
2020/12/07 08:47:27;;;;;;;14.60;13.70;;;7.60;99.90;;;;;;4962969;28;20453;-82
2020/12/07 08:49:53;;;;;;;13.83;13.13;;;7.70;99.90;;;;;;4955205;28;20484;-82
2020/12/07 08:52:19;;;;;;;12.70;12.00;;;7.60;99.90;;;;;;4955805;28;21004;-83
2020/12/07 08:54:45;;;;;;;14.30;13.10;;;7.60;99.90;;;;;;4952129;28;20931;-79
2020/12/07 08:57:11;;;;;;;13.80;13.00;;;8.00;99.90;;;;;;4954263;28;20440;-79
2020/12/07 08:59:38;;;;;;;12.53;11.83;;;8.20;99.90;;;;;;4954121;28;20436;-79
2020/12/07 09:02:05;;;;;;;13.40;12.60;;;8.10;99.90;;;;;;4954151;28;20448;-82
2020/12/07 09:04:31;;;;;;;15.37;14.37;;;7.70;99.90;;;;;;4953755;28;20449;-79
2020/12/07 09:06:57;;;;;;;13.77;12.97;;;7.70;99.90;;;;;;4953968;28;20449;-79
2020/12/07 09:09:23;;;;;;;14.03;13.23;;;8.20;99.90;;;;;;4953734;28;20488;-79
2020/12/07 09:11:49;;;;;;;15.83;14.63;;;8.30;99.90;;;;;;4953735;28;20854;-79
2020/12/07 09:14:15;;;;;;;14.70;13.67;;;8.30;99.90;;;;;;4953688;28;20448;-79
2020/12/07 09:16:42;;;;;;;20.33;18.87;;;8.90;99.90;;;;;;4952280;28;20449;-79
2020/12/07 09:19:09;;;;;;;14.40;13.60;;;9.00;99.90;;;;;;4953704;28;20445;-83
2020/12/07 09:21:35;;;;;;;14.67;13.57;;;8.60;99.90;;;;;;4953760;28;20440;-79
2020/12/07 09:24:01;;;;;;;14.87;14.03;;;8.60;99.90;;;;;;4951889;28;20453;-81
2020/12/07 09:26:28;;;;;;;13.20;12.50;;;8.70;99.90;;;;;;4953868;28;20440;-80
2020/12/07 09:28:54;;;;;;;15.03;13.97;;;8.70;99.90;;;;;;4951778;28;20489;-80
2020/12/07 09:31:20;;;;;;;14.20;13.40;;;8.90;99.90;;;;;;4953047;28;20456;-80
2020/12/07 09:33:47;;;;;;;15.53;14.50;;;8.70;99.90;;;;;;4952779;28;20522;-81
2020/12/07 09:36:14;;;;;;;16.70;15.30;;;8.80;99.90;;;;;;4953164;28;20452;-80
2020/12/07 09:38:41;;;;;;;15.07;14.23;;;8.60;99.90;;;;;;4953281;28;20441;-80
2020/12/07 09:41:07;;;;;;;14.60;13.60;;;9.00;99.90;;;;;;4953197;28;20456;-80
2020/12/07 09:43:35;;;;;;;13.43;12.53;;;9.10;99.90;;;;;;4952209;28;20456;-80
2020/12/07 09:46:01;;;;;;;12.90;12.20;;;8.70;99.90;;;;;;4952886;28;20441;-79
2020/12/07 09:48:27;;;;;;;13.90;13.20;;;8.80;99.90;;;;;;4953322;28;21010;-79
2020/12/07 09:50:53;;;;;;;14.90;14.00;;;8.70;99.90;;;;;;4952719;28;20472;-79
2020/12/07 09:53:21;;;;;;;15.00;14.00;;;8.80;99.90;;;;;;4952640;28;20453;-79
2020/12/07 09:55:48;;;;;;;13.33;12.60;;;8.90;99.90;;;;;;4952673;28;20451;-79
2020/12/07 09:58:14;;;;;;;13.50;12.80;;;8.60;99.90;;;;;;4953167;28;20943;-80
2020/12/07 10:00:40;;;;;;;12.43;11.83;;;8.10;99.90;;;;;;4953077;28;20451;-78
2020/12/07 10:03:06;;;;;;;13.30;12.70;;;8.00;99.90;;;;;;4952702;28;20957;-78
2020/12/07 10:05:33;;;;;;;13.60;12.90;;;8.20;99.90;;;;;;4952989;28;20853;-79
2020/12/07 10:07:59;;;;;;;14.60;13.70;;;8.20;99.90;;;;;;4952955;28;20445;-77
2020/12/07 10:10:26;;;;;;;15.37;14.47;;;8.20;99.90;;;;;;4952758;28;21050;-78
2020/12/07 10:12:52;;;;;;;14.43;13.57;;;8.70;99.90;;;;;;4952691;28;20451;-78
2020/12/07 10:15:18;;;;;;;13.07;12.40;;;8.70;99.90;;;;;;4952644;28;20436;-78
2020/12/07 10:17:44;;;;;;;12.90;12.17;;;8.60;99.90;;;;;;4952693;28;20825;-78
2020/12/07 10:20:10;;;;;;;13.00;12.30;;;8.40;99.90;;;;;;4953000;28;20440;-77
2020/12/07 10:22:37;;;;;;;13.40;12.60;;;8.10;99.90;;;;;;4952917;28;20449;-79
2020/12/07 10:25:03;;;;;;;12.87;12.07;;;8.20;99.90;;;;;;4952387;28;21195;-78
2020/12/07 10:27:30;;;;;;;13.37;12.33;;;8.40;99.90;;;;;;4952536;28;20452;-78
2020/12/07 10:29:56;;;;;;;14.23;13.33;;;8.30;99.90;;;;;;4952422;28;21012;-79
2020/12/07 10:32:22;;;;;;;12.10;11.40;;;8.30;99.90;;;;;;4952109;28;20464;-79
2020/12/07 10:34:49;;;;;;;12.20;11.60;;;8.00;99.90;;;;;;4952190;28;20982;-79
2020/12/07 10:37:15;;;;;;;13.93;13.20;;;8.20;99.90;;;;;;4952601;28;20461;-81
2020/12/07 10:39:42;;;;;;;12.87;12.30;;;8.50;99.90;;;;;;4952682;28;20943;-79
2020/12/07 10:42:08;;;;;;;11.50;11.00;;;8.20;99.90;;;;;;4952031;28;20441;-80
2020/12/07 10:44:35;;;;;;;11.30;10.70;;;8.00;99.90;;;;;;4952072;28;20459;-80
2020/12/07 10:47:01;;;;;;;11.87;11.37;;;8.00;99.90;;;;;;4952150;28;20457;-78
2020/12/07 10:49:27;;;;;;;12.17;11.67;;;8.40;99.90;;;;;;4952237;28;20480;-77
2020/12/07 10:51:54;;;;;;;13.13;12.27;;;8.90;99.90;;;;;;4952146;28;20452;-77
2020/12/07 10:54:20;;;;;;;12.50;11.80;;;8.90;99.90;;;;;;4953503;28;20448;-78
2020/12/07 10:56:46;;;;;;;12.70;12.20;;;8.90;99.90;;;;;;4956297;28;20449;-79
2020/12/07 10:59:13;;;;;;;11.70;11.10;;;8.70;99.90;;;;;;4956343;28;20449;-79
2020/12/07 11:01:40;;;;;;;11.70;11.10;;;8.60;99.90;;;;;;4956281;28;20843;-80
2020/12/07 11:04:06;;;;;;;13.97;13.27;;;8.10;99.90;;;;;;4956214;28;20492;-79
2020/12/07 11:06:35;;;;;;;12.30;11.70;;;7.80;99.90;;;;;;4956186;28;20457;-80
2020/12/07 11:09:06;;;;;;;12.10;11.50;;;7.70;99.90;;;;;;4955905;28;20516;-80
2020/12/07 11:11:32;;;;;;;11.80;11.27;;;7.60;99.90;;;;;;4955924;28;20448;-79
2020/12/07 11:13:58;;;;;;;11.80;11.13;;;7.20;99.90;;;;;;4956128;28;20452;-79
2020/12/07 11:16:25;;;;;;;13.30;12.50;;;7.20;99.90;;;;;;4955989;28;20459;-78
2020/12/07 11:18:52;;;;;;;12.43;11.70;;;7.50;99.90;;;;;;4955647;28;20523;-76
2020/12/07 11:21:19;;;;;;;13.50;12.67;;;8.00;99.90;;;;;;4955908;28;20853;-76
2020/12/07 11:23:47;;;;;;;17.13;15.87;;;8.20;99.90;;;;;;4955477;28;20456;-78
2020/12/07 11:26:15;;;;;;;11.63;11.03;;;8.60;99.90;;;;;;4956206;28;20448;-78
2020/12/07 11:28:41;;;;;;;11.80;11.20;;;8.70;99.90;;;;;;4956438;28;20990;-78
2020/12/07 11:31:09;;;;;;;12.53;11.83;;;8.90;99.90;;;;;;4956168;28;20449;-79
2020/12/07 11:33:36;;;;;;;12.33;11.73;;;8.60;99.90;;;;;;4955978;28;20465;-79
2020/12/07 11:36:03;;;;;;;11.80;11.03;;;8.30;99.90;;;;;;4955855;28;20472;-78
2020/12/07 11:38:33;;;;;;;10.70;10.17;;;8.30;99.90;;;;;;4956021;28;20926;-78
2020/12/07 11:43:46;;;;;;;12.57;11.80;;;7.90;99.90;;;;;;4962069;28;20425;-78
2020/12/07 11:46:17;;;;;;;13.10;12.30;;;7.60;99.90;;;;;;4955286;28;20468;-78
2020/12/07 11:48:43;;;;;;;11.43;10.83;;;7.50;99.90;;;;;;4951697;28;20578;-79
2020/12/07 11:51:10;;;;;;;10.70;10.20;;;7.40;99.90;;;;;;4954139;28;20445;-79
2020/12/07 11:53:36;;;;;;;11.00;10.50;;;7.20;99.90;;;;;;4955178;28;20472;-79
2020/12/07 11:56:02;;;;;;;12.60;11.90;;;7.20;99.90;;;;;;4954862;28;20448;-79
2020/12/07 11:58:29;;;;;;;13.77;12.97;;;7.40;99.90;;;;;;4955015;28;20942;-80
2020/12/07 12:00:55;;;;;;;12.20;11.50;;;7.40;99.90;;;;;;4955028;28;20463;-79
2020/12/07 12:03:21;;;;;;;11.60;11.00;;;7.30;99.90;;;;;;4954425;28;20448;-80
2020/12/07 12:05:47;;;;;;;11.63;11.03;;;7.50;99.90;;;;;;4953366;28;20445;-79
2020/12/07 12:08:14;;;;;;;11.77;11.10;;;7.70;99.90;;;;;;4954772;28;20448;-80
2020/12/07 12:10:40;;;;;;;13.60;12.80;;;7.70;99.90;;;;;;4955037;28;20488;-78
2020/12/07 12:13:06;;;;;;;13.63;12.43;;;7.40;99.90;;;;;;4954634;28;20444;-78
2020/12/07 12:15:33;;;;;;;11.87;11.23;;;7.60;99.90;;;;;;4954545;28;20456;-80
2020/12/07 12:17:59;;;;;;;13.00;12.20;;;7.80;99.90;;;;;;4954566;28;20445;-80
2020/12/07 12:20:25;;;;;;;12.37;11.77;;;7.80;99.90;;;;;;4954633;28;20444;-79
2020/12/07 12:22:51;;;;;;;12.90;12.10;;;7.80;99.90;;;;;;4954733;28;20907;-80
2020/12/07 12:25:18;;;;;;;13.73;13.03;;;8.00;99.90;;;;;;4954538;28;20810;-79
2020/12/07 12:27:44;;;;;;;17.33;16.03;;;8.00;99.90;;;;;;4954400;28;20455;-79
2020/12/07 12:30:10;;;;;;;12.03;11.33;;;8.00;99.90;;;;;;4954289;28;21018;-79
2020/12/07 12:32:36;;;;;;;13.50;12.80;;;7.60;99.90;;;;;;4954214;28;20472;-80
2020/12/07 12:35:03;;;;;;;12.50;11.77;;;7.30;99.90;;;;;;4954070;28;20479;-79
2020/12/07 12:37:29;;;;;;;12.47;11.67;;;7.10;99.90;;;;;;4954348;28;20464;-79
2020/12/07 12:39:55;;;;;;;12.57;11.97;;;6.80;99.90;;;;;;4954261;28;20437;-79
2020/12/07 12:42:22;;;;;;;10.90;10.40;;;6.70;99.90;;;;;;4954017;28;20444;-79
2020/12/07 12:44:48;;;;;;;13.07;12.37;;;6.50;99.90;;;;;;4953968;28;20451;-79
2020/12/07 12:47:14;;;;;;;11.23;10.73;;;6.50;99.90;;;;;;4954098;28;20451;-79
2020/12/07 12:49:41;;;;;;;11.83;11.23;;;6.60;99.90;;;;;;4954100;28;20493;-79
2020/12/07 12:52:07;;;;;;;12.23;11.40;;;6.70;99.90;;;;;;4953794;28;21097;-79
2020/12/07 12:54:33;;;;;;;11.30;10.67;;;7.10;99.90;;;;;;4953866;28;20449;-79
2020/12/07 12:56:59;;;;;;;12.90;12.00;;;7.10;99.90;;;;;;4953770;28;20444;-78
2020/12/07 12:59:26;;;;;;;10.50;10.10;;;7.20;99.90;;;;;;4953961;28;20448;-78
2020/12/07 13:01:52;;;;;;;12.30;11.80;;;6.90;99.90;;;;;;4953765;28;20823;-79
2020/12/07 13:04:19;;;;;;;12.00;11.30;;;6.90;99.90;;;;;;4953796;28;20467;-79
2020/12/07 13:06:45;;;;;;;11.43;10.93;;;6.90;99.90;;;;;;4953824;28;20452;-79
2020/12/07 13:09:11;;;;;;;12.30;11.20;;;7.10;99.90;;;;;;4953438;28;20496;-79
2020/12/07 13:11:37;;;;;;;11.80;11.00;;;7.20;99.90;;;;;;4953674;28;20455;-79
2020/12/07 13:14:04;;;;;;;11.60;11.10;;;7.30;99.90;;;;;;4953720;28;20449;-79
2020/12/07 13:16:39;;;;;;;12.07;11.57;;;7.40;99.90;;;;;;4953481;28;20457;-79
2020/12/07 13:19:05;;;;;;;11.67;11.00;;;7.50;99.90;;;;;;4953708;28;20448;-79
2020/12/07 13:21:34;;;;;;;12.10;11.47;;;7.90;99.90;;;;;;4953527;28;20907;-79
2020/12/07 13:24:04;;;;;;;11.40;10.90;;;8.00;99.90;;;;;;4953473;28;20459;-79
2020/12/07 13:26:39;;;;;;;11.53;11.03;;;8.40;99.90;;;;;;4953654;28;20452;-80
2020/12/07 13:29:05;;;;;;;11.20;10.60;;;8.40;99.90;;;;;;4953632;28;20488;-79
2020/12/07 13:31:39;;;;;;;12.20;11.70;;;8.30;99.90;;;;;;4953356;28;20869;-79
2020/12/07 13:34:05;;;;;;;12.00;11.30;;;8.20;99.90;;;;;;4953141;28;20488;-79
2020/12/07 13:36:31;;;;;;;12.07;11.53;;;8.10;99.90;;;;;;4953282;28;20915;-79
2020/12/07 13:38:58;;;;;;;12.00;11.37;;;7.90;99.90;;;;;;4953777;28;20444;-79
2020/12/07 13:41:25;;;;;;;11.70;11.00;;;7.90;99.90;;;;;;4944552;28;20987;-79
2020/12/07 13:43:51;;;;;;;12.20;11.50;;;7.90;99.90;;;;;;4950235;28;20449;-79
2020/12/07 13:46:17;;;;;;;11.70;11.20;;;8.00;99.90;;;;;;4935010;28;20560;-79
2020/12/07 13:48:44;;;;;;;11.13;10.63;;;7.80;99.90;;;;;;4937903;29;20954;-79
2020/12/07 13:51:12;;;;;;;11.93;11.33;;;7.60;99.90;;;;;;4953559;28;20441;-79
2020/12/07 13:53:38;;;;;;;12.30;11.50;;;7.40;99.90;;;;;;4953358;28;20455;-79
2020/12/07 13:56:05;;;;;;;11.43;10.93;;;7.30;99.90;;;;;;4953215;28;20781;-79
2020/12/07 13:58:31;;;;;;;11.53;11.03;;;7.40;99.90;;;;;;4939401;28;20537;-79
2020/12/07 14:00:59;;;;;;;10.73;10.23;;;7.20;99.90;;;;;;4934578;29;20437;-79
2020/12/07 14:03:31;;;;;;;16.40;14.90;;;7.20;99.90;;;;;;4934418;29;20934;-79
2020/12/07 14:05:58;;;;;;;11.57;10.97;;;7.30;99.90;;;;;;4934252;29;20456;-79
2020/12/07 14:08:24;;;;;;;10.13;9.63;;;7.30;99.90;;;;;;4934104;29;20448;-79
2020/12/07 14:10:50;;;;;;;11.20;10.70;;;7.20;99.90;;;;;;4933771;29;21047;-79
2020/12/07 14:13:16;;;;;;;11.87;11.27;;;7.00;99.90;;;;;;4933760;29;20446;-78
2020/12/07 14:15:43;;;;;;;11.47;10.97;;;6.70;99.90;;;;;;4948614;28;20448;-81
2020/12/07 14:18:11;;;;;;;12.77;12.20;;;6.80;99.90;;;;;;4952783;28;20444;-80
2020/12/07 14:20:44;;;;;;;12.20;11.70;;;6.70;99.90;;;;;;4952969;28;20472;-80
2020/12/07 14:23:18;;;;;;;11.57;11.10;;;6.70;99.90;;;;;;4953129;28;20484;-80
2020/12/07 14:39:44;;;;;;;11.90;11.10;;;6.50;99.90;;;;;;4953297;28;20453;-79
2020/12/07 14:42:11;;;;;;;12.17;11.30;;;6.40;99.90;;;;;;4940427;28;20457;-80
2020/12/07 14:44:41;;;;;;;12.97;12.07;;;6.30;99.90;;;;;;4933313;29;20536;-80
2020/12/07 14:47:08;;;;;;;12.03;11.43;;;6.10;99.90;;;;;;4933139;29;20458;-80
2020/12/07 14:49:34;;;;;;;12.97;12.27;;;6.00;99.90;;;;;;4933101;29;20485;-80
2020/12/07 14:52:03;;;;;;;12.40;11.70;;;5.90;99.90;;;;;;4933125;29;20449;-80
2020/12/07 14:54:31;;;;;;;12.00;11.40;;;5.90;99.90;;;;;;4933355;29;20512;-79
2020/12/07 14:57:18;;;;;;;12.00;11.40;;;5.80;99.90;;;;;;4933575;29;20446;-79
2020/12/07 15:05:24;;;;;;;12.90;12.00;;;5.70;99.90;;;;;;4911654;29;20436;-79
2020/12/07 15:08:21;;;;;;;13.33;12.43;;;5.60;99.90;;;;;;4933096;29;20500;-79
2020/12/07 15:13:56;;;;;;;12.30;11.40;;;5.50;99.90;;;;;;4932095;29;20456;-79
2020/12/07 15:16:23;;;;;;;13.00;11.90;;;5.40;99.90;;;;;;4932554;29;20997;-80
2020/12/07 15:18:50;;;;;;;11.53;10.83;;;5.40;99.90;;;;;;4932785;29;20536;-79
2020/12/07 15:21:17;;;;;;;11.37;10.87;;;5.40;99.90;;;;;;4932597;29;20941;-79
2020/12/07 15:23:43;;;;;;;11.93;11.07;;;5.40;99.90;;;;;;4932747;29;20445;-80
2020/12/07 15:26:10;;;;;;;10.63;10.03;;;5.30;99.90;;;;;;4932707;29;20438;-79
2020/12/07 15:28:38;;;;;;;11.80;11.00;;;5.30;99.90;;;;;;4932470;29;20448;-79
2020/12/07 15:31:06;;;;;;;12.23;11.43;;;5.20;99.90;;;;;;4932349;29;20513;-80
2020/12/07 15:33:33;;;;;;;12.00;11.40;;;5.20;99.90;;;;;;4932199;29;20485;-80
2020/12/07 15:36:05;;;;;;;11.40;10.60;;;5.20;99.90;;;;;;4961490;28;20471;-80
2020/12/07 15:38:32;;;;;;;10.57;9.87;;;5.20;99.90;;;;;;4970729;28;20443;-81
2020/12/07 15:40:58;;;;;;;11.57;10.90;;;5.10;99.90;;;;;;4973306;28;20440;-80
2020/12/07 15:46:50;;;;;;;11.90;11.07;;;5.10;99.90;;;;;;4968392;28;20447;-81
2020/12/07 15:49:16;;;;;;;13.63;12.30;;;5.20;99.90;;;;;;4974684;28;20490;-81
2020/12/07 15:51:42;;;;;;;11.77;10.97;;;5.10;99.90;;;;;;4974428;28;20814;-80
2020/12/07 15:54:09;;;;;;;11.30;10.70;;;5.10;99.90;;;;;;4974547;28;20452;-81
2020/12/07 15:56:35;;;;;;;12.97;12.17;;;5.10;99.90;;;;;;4974385;28;20960;-81